Cunard, West Virginia
Current Conditions -  °F | °C
As of 7:51 AM on Tuesday 21 Oct 2014 (Local Time) from KBKW Reporting Station
Overcast Overcast  
Wind Chill: 45°   Ceiling: 1800
Heat Index: 48°   Visibility: 10mi
Dew Point: 45°   Wind: 6mph
Humidity: 89%   Direction: 210°SSW
Pressure: 29.94"   Gusts: NA
Location:  38.0317°N, 81.0282°W
Report Text: KBKW 211151Z AUTO 21005KT 10SM BKN018 OVC022 09/07 A2994 RMK AO2 SLP135 60002 70003 T00890072 10100 20072 55001 TSNO
Loading
Personal Weather Stations






























Interactive Weather Map
Tropical Storm Tracking
New forecast layout! Learn more

10-Day Weather Forecast

Advertisements
Track Severe Weather on mobile